sensor_id;sensor_type;location;lat;lon;timestamp;P1;durP1;ratioP1;P2;durP2;ratioP2
83435;SDS011;73365;51.688;5.132;2024-02-15T00:02:23;12.90;;;9.03;;
83435;SDS011;73365;51.688;5.132;2024-02-15T00:04:49;14.38;;;8.73;;
83435;SDS011;73365;51.688;5.132;2024-02-15T00:07:14;15.27;;;8.50;;
83435;SDS011;73365;51.688;5.132;2024-02-15T00:09:40;13.93;;;7.90;;
83435;SDS011;73365;51.688;5.132;2024-02-15T00:12:05;15.88;;;7.82;;
83435;SDS011;73365;51.688;5.132;2024-02-15T00:14:31;14.68;;;6.97;;
83435;SDS011;73365;51.688;5.132;2024-02-15T00:19:22;13.60;;;7.85;;
83435;SDS011;73365;51.688;5.132;2024-02-15T00:21:48;13.77;;;7.55;;
83435;SDS011;73365;51.688;5.132;2024-02-15T00:24:13;9.93;;;6.97;;
83435;SDS011;73365;51.688;5.132;2024-02-15T00:26:42;11.93;;;7.35;;
83435;SDS011;73365;51.688;5.132;2024-02-15T00:29:07;14.98;;;7.35;;
83435;SDS011;73365;51.688;5.132;2024-02-15T00:31:33;14.63;;;7.40;;
83435;SDS011;73365;51.688;5.132;2024-02-15T00:34:00;10.77;;;6.50;;
83435;SDS011;73365;51.688;5.132;2024-02-15T00:36:27;11.15;;;7.20;;
83435;SDS011;73365;51.688;5.132;2024-02-15T00:38:53;12.07;;;7.38;;
83435;SDS011;73365;51.688;5.132;2024-02-15T00:41:18;19.20;;;7.55;;
83435;SDS011;73365;51.688;5.132;2024-02-15T00:43:45;14.07;;;7.53;;
83435;SDS011;73365;51.688;5.132;2024-02-15T00:46:10;12.90;;;7.15;;
83435;SDS011;73365;51.688;5.132;2024-02-15T00:48:35;12.97;;;7.27;;
83435;SDS011;73365;51.688;5.132;2024-02-15T00:51:01;12.48;;;7.45;;
83435;SDS011;73365;51.688;5.132;2024-02-15T00:53:26;13.85;;;7.63;;
83435;SDS011;73365;51.688;5.132;2024-02-15T00:55:51;12.03;;;7.27;;
83435;SDS011;73365;51.688;5.132;2024-02-15T00:58:17;14.93;;;7.03;;
83435;SDS011;73365;51.688;5.132;2024-02-15T01:00:42;13.38;;;7.30;;
83435;SDS011;73365;51.688;5.132;2024-02-15T01:03:08;12.48;;;7.40;;
83435;SDS011;73365;51.688;5.132;2024-02-15T01:05:33;14.73;;;7.63;;
83435;SDS011;73365;51.688;5.132;2024-02-15T01:07:59;12.63;;;7.13;;
83435;SDS011;73365;51.688;5.132;2024-02-15T01:10:24;12.02;;;6.70;;
83435;SDS011;73365;51.688;5.132;2024-02-15T01:12:51;12.13;;;7.20;;
83435;SDS011;73365;51.688;5.132;2024-02-15T01:15:17;16.48;;;7.97;;
83435;SDS011;73365;51.688;5.132;2024-02-15T01:17:43;15.13;;;6.80;;
83435;SDS011;73365;51.688;5.132;2024-02-15T01:20:09;15.15;;;6.68;;
83435;SDS011;73365;51.688;5.132;2024-02-15T01:22:35;14.02;;;6.80;;
83435;SDS011;73365;51.688;5.132;2024-02-15T01:25:01;13.02;;;6.63;;
83435;SDS011;73365;51.688;5.132;2024-02-15T01:27:27;13.10;;;6.93;;
83435;SDS011;73365;51.688;5.132;2024-02-15T01:29:58;13.60;;;6.82;;
83435;SDS011;73365;51.688;5.132;2024-02-15T01:32:23;11.68;;;7.32;;
83435;SDS011;73365;51.688;5.132;2024-02-15T01:34:50;13.63;;;5.85;;
83435;SDS011;73365;51.688;5.132;2024-02-15T01:37:18;13.25;;;6.30;;
83435;SDS011;73365;51.688;5.132;2024-02-15T01:39:45;14.85;;;7.05;;
83435;SDS011;73365;51.688;5.132;2024-02-15T01:42:10;10.75;;;6.38;;
83435;SDS011;73365;51.688;5.132;2024-02-15T01:44:36;14.85;;;6.63;;
83435;SDS011;73365;51.688;5.132;2024-02-15T01:47:02;12.70;;;6.88;;
83435;SDS011;73365;51.688;5.132;2024-02-15T01:49:28;9.75;;;6.20;;
83435;SDS011;73365;51.688;5.132;2024-02-15T01:51:53;11.55;;;5.90;;
83435;SDS011;73365;51.688;5.132;2024-02-15T01:54:21;11.68;;;5.80;;
83435;SDS011;73365;51.688;5.132;2024-02-15T01:56:47;14.00;;;6.38;;
83435;SDS011;73365;51.688;5.132;2024-02-15T01:59:15;11.35;;;5.22;;
83435;SDS011;73365;51.688;5.132;2024-02-15T02:01:40;13.20;;;5.75;;
83435;SDS011;73365;51.688;5.132;2024-02-15T02:06:32;13.07;;;5.53;;
83435;SDS011;73365;51.688;5.132;2024-02-15T02:08:58;12.32;;;5.38;;
83435;SDS011;73365;51.688;5.132;2024-02-15T02:11:23;12.95;;;5.15;;
83435;SDS011;73365;51.688;5.132;2024-02-15T02:13:49;10.30;;;4.90;;
83435;SDS011;73365;51.688;5.132;2024-02-15T02:16:29;9.57;;;4.78;;
83435;SDS011;73365;51.688;5.132;2024-02-15T02:18:57;11.73;;;5.20;;
83435;SDS011;73365;51.688;5.132;2024-02-15T02:21:23;14.02;;;5.10;;
83435;SDS011;73365;51.688;5.132;2024-02-15T02:23:52;12.95;;;5.85;;
83435;SDS011;73365;51.688;5.132;2024-02-15T02:26:19;11.05;;;4.47;;
83435;SDS011;73365;51.688;5.132;2024-02-15T02:28:46;14.18;;;5.43;;
83435;SDS011;73365;51.688;5.132;2024-02-15T02:31:12;13.50;;;5.38;;
83435;SDS011;73365;51.688;5.132;2024-02-15T02:33:37;13.07;;;5.30;;
83435;SDS011;73365;51.688;5.132;2024-02-15T02:36:02;11.30;;;5.07;;
83435;SDS011;73365;51.688;5.132;2024-02-15T02:38:28;10.32;;;4.78;;
83435;SDS011;73365;51.688;5.132;2024-02-15T02:43:20;12.47;;;4.73;;
83435;SDS011;73365;51.688;5.132;2024-02-15T02:45:46;10.20;;;4.57;;
83435;SDS011;73365;51.688;5.132;2024-02-15T02:48:11;10.88;;;4.47;;
83435;SDS011;73365;51.688;5.132;2024-02-15T02:50:37;11.77;;;4.40;;
83435;SDS011;73365;51.688;5.132;2024-02-15T02:53:03;9.68;;;4.07;;
83435;SDS011;73365;51.688;5.132;2024-02-15T02:55:28;12.38;;;5.03;;
83435;SDS011;73365;51.688;5.132;2024-02-15T02:57:54;10.95;;;4.45;;
83435;SDS011;73365;51.688;5.132;2024-02-15T03:00:25;9.82;;;3.85;;
83435;SDS011;73365;51.688;5.132;2024-02-15T03:02:52;11.07;;;4.20;;
83435;SDS011;73365;51.688;5.132;2024-02-15T03:05:21;10.82;;;4.65;;
83435;SDS011;73365;51.688;5.132;2024-02-15T03:07:47;11.77;;;5.15;;
83435;SDS011;73365;51.688;5.132;2024-02-15T03:12:38;8.90;;;3.50;;
83435;SDS011;73365;51.688;5.132;2024-02-15T03:17:32;12.45;;;4.65;;
83435;SDS011;73365;51.688;5.132;2024-02-15T03:22:24;15.05;;;4.43;;
83435;SDS011;73365;51.688;5.132;2024-02-15T03:24:52;6.85;;;3.75;;
83435;SDS011;73365;51.688;5.132;2024-02-15T03:27:20;10.20;;;3.30;;
83435;SDS011;73365;51.688;5.132;2024-02-15T03:29:48;10.98;;;3.42;;
83435;SDS011;73365;51.688;5.132;2024-02-15T03:32:15;9.38;;;3.67;;
83435;SDS011;73365;51.688;5.132;2024-02-15T03:34:41;12.07;;;4.07;;
83435;SDS011;73365;51.688;5.132;2024-02-15T03:37:07;16.90;;;3.85;;
83435;SDS011;73365;51.688;5.132;2024-02-15T03:39:34;8.60;;;3.33;;
83435;SDS011;73365;51.688;5.132;2024-02-15T03:44:26;9.85;;;3.35;;
83435;SDS011;73365;51.688;5.132;2024-02-15T03:49:18;9.05;;;3.17;;
83435;SDS011;73365;51.688;5.132;2024-02-15T03:51:43;11.55;;;3.42;;
83435;SDS011;73365;51.688;5.132;2024-02-15T03:54:10;12.35;;;3.70;;
83435;SDS011;73365;51.688;5.132;2024-02-15T03:56:36;8.15;;;3.50;;
83435;SDS011;73365;51.688;5.132;2024-02-15T03:59:02;8.50;;;3.40;;
83435;SDS011;73365;51.688;5.132;2024-02-15T04:01:30;10.85;;;3.55;;
83435;SDS011;73365;51.688;5.132;2024-02-15T04:03:59;9.90;;;2.97;;
83435;SDS011;73365;51.688;5.132;2024-02-15T04:08:51;10.43;;;2.85;;
83435;SDS011;73365;51.688;5.132;2024-02-15T04:11:18;8.25;;;3.47;;
83435;SDS011;73365;51.688;5.132;2024-02-15T04:13:46;8.85;;;3.08;;
83435;SDS011;73365;51.688;5.132;2024-02-15T04:16:11;8.90;;;2.97;;
83435;SDS011;73365;51.688;5.132;2024-02-15T04:18:36;10.27;;;2.85;;
83435;SDS011;73365;51.688;5.132;2024-02-15T04:21:03;11.23;;;3.42;;
83435;SDS011;73365;51.688;5.132;2024-02-15T04:23:31;10.25;;;3.63;;
83435;SDS011;73365;51.688;5.132;2024-02-15T04:25:56;10.73;;;2.80;;
83435;SDS011;73365;51.688;5.132;2024-02-15T04:28:21;5.72;;;2.90;;
83435;SDS011;73365;51.688;5.132;2024-02-15T04:30:50;9.40;;;3.33;;
83435;SDS011;73365;51.688;5.132;2024-02-15T04:33:36;8.82;;;3.13;;
83435;SDS011;73365;51.688;5.132;2024-02-15T04:36:01;7.50;;;2.78;;
83435;SDS011;73365;51.688;5.132;2024-02-15T04:38:34;8.43;;;2.70;;
83435;SDS011;73365;51.688;5.132;2024-02-15T04:41:04;10.07;;;3.17;;
83435;SDS011;73365;51.688;5.132;2024-02-15T04:43:33;7.72;;;2.70;;
83435;SDS011;73365;51.688;5.132;2024-02-15T04:46:05;6.78;;;2.75;;
83435;SDS011;73365;51.688;5.132;2024-02-15T04:48:32;8.93;;;2.65;;
83435;SDS011;73365;51.688;5.132;2024-02-15T04:50:59;7.28;;;3.13;;
83435;SDS011;73365;51.688;5.132;2024-02-15T04:53:26;9.27;;;3.10;;
83435;SDS011;73365;51.688;5.132;2024-02-15T04:55:51;8.38;;;2.65;;
83435;SDS011;73365;51.688;5.132;2024-02-15T04:58:20;8.35;;;2.72;;
83435;SDS011;73365;51.688;5.132;2024-02-15T05:00:45;8.32;;;2.55;;
83435;SDS011;73365;51.688;5.132;2024-02-15T05:03:10;4.72;;;2.45;;
83435;SDS011;73365;51.688;5.132;2024-02-15T05:05:39;7.38;;;2.83;;
83435;SDS011;73365;51.688;5.132;2024-02-15T05:08:04;5.90;;;2.85;;
83435;SDS011;73365;51.688;5.132;2024-02-15T05:10:31;6.53;;;2.45;;
83435;SDS011;73365;51.688;5.132;2024-02-15T05:15:26;5.93;;;3.05;;
83435;SDS011;73365;51.688;5.132;2024-02-15T05:17:52;6.43;;;2.55;;
83435;SDS011;73365;51.688;5.132;2024-02-15T05:20:19;6.20;;;3.00;;
83435;SDS011;73365;51.688;5.132;2024-02-15T05:22:46;10.15;;;3.35;;
83435;SDS011;73365;51.688;5.132;2024-02-15T05:27:37;9.15;;;3.85;;
83435;SDS011;73365;51.688;5.132;2024-02-15T05:32:32;6.88;;;3.63;;
83435;SDS011;73365;51.688;5.132;2024-02-15T05:35:08;10.18;;;4.45;;
83435;SDS011;73365;51.688;5.132;2024-02-15T05:37:37;9.80;;;3.78;;
83435;SDS011;73365;51.688;5.132;2024-02-15T05:40:05;8.68;;;4.13;;
83435;SDS011;73365;51.688;5.132;2024-02-15T05:42:32;6.63;;;3.60;;
83435;SDS011;73365;51.688;5.132;2024-02-15T05:47:27;8.48;;;3.88;;
83435;SDS011;73365;51.688;5.132;2024-02-15T05:52:18;7.25;;;3.42;;
83435;SDS011;73365;51.688;5.132;2024-02-15T05:54:45;11.38;;;4.13;;
83435;SDS011;73365;51.688;5.132;2024-02-15T05:59:40;8.93;;;3.58;;
83435;SDS011;73365;51.688;5.132;2024-02-15T06:02:06;6.15;;;2.90;;
83435;SDS011;73365;51.688;5.132;2024-02-15T06:04:34;7.38;;;3.42;;
83435;SDS011;73365;51.688;5.132;2024-02-15T06:07:00;6.78;;;3.08;;
83435;SDS011;73365;51.688;5.132;2024-02-15T06:11:55;7.20;;;3.20;;
83435;SDS011;73365;51.688;5.132;2024-02-15T06:14:21;7.65;;;2.72;;
83435;SDS011;73365;51.688;5.132;2024-02-15T06:17:10;9.05;;;2.80;;
83435;SDS011;73365;51.688;5.132;2024-02-15T06:19:37;7.20;;;2.90;;
83435;SDS011;73365;51.688;5.132;2024-02-15T06:22:05;6.78;;;3.10;;
83435;SDS011;73365;51.688;5.132;2024-02-15T06:24:34;5.75;;;2.60;;
83435;SDS011;73365;51.688;5.132;2024-02-15T06:27:00;6.78;;;2.40;;
83435;SDS011;73365;51.688;5.132;2024-02-15T06:29:27;4.68;;;3.05;;
83435;SDS011;73365;51.688;5.132;2024-02-15T06:32:14;6.43;;;2.53;;
83435;SDS011;73365;51.688;5.132;2024-02-15T06:34:58;8.63;;;2.60;;
83435;SDS011;73365;51.688;5.132;2024-02-15T06:37:42;5.80;;;2.85;;
83435;SDS011;73365;51.688;5.132;2024-02-15T06:40:29;6.75;;;2.83;;
83435;SDS011;73365;51.688;5.132;2024-02-15T06:42:58;6.47;;;2.35;;
83435;SDS011;73365;51.688;5.132;2024-02-15T06:45:24;5.22;;;2.72;;
83435;SDS011;73365;51.688;5.132;2024-02-15T06:47:49;6.35;;;2.80;;
83435;SDS011;73365;51.688;5.132;2024-02-15T06:50:15;4.28;;;2.28;;
83435;SDS011;73365;51.688;5.132;2024-02-15T06:52:42;5.30;;;2.10;;
83435;SDS011;73365;51.688;5.132;2024-02-15T06:55:09;4.43;;;2.22;;
83435;SDS011;73365;51.688;5.132;2024-02-15T06:57:38;5.78;;;2.17;;
83435;SDS011;73365;51.688;5.132;2024-02-15T07:00:11;2.97;;;1.80;;
83435;SDS011;73365;51.688;5.132;2024-02-15T07:02:41;4.95;;;2.53;;
83435;SDS011;73365;51.688;5.132;2024-02-15T07:05:09;6.03;;;2.75;;
83435;SDS011;73365;51.688;5.132;2024-02-15T07:07:42;4.63;;;2.28;;
83435;SDS011;73365;51.688;5.132;2024-02-15T07:12:34;4.57;;;2.85;;
83435;SDS011;73365;51.688;5.132;2024-02-15T07:15:01;6.72;;;2.55;;
83435;SDS011;73365;51.688;5.132;2024-02-15T07:17:30;4.43;;;2.60;;
83435;SDS011;73365;51.688;5.132;2024-02-15T07:19:59;5.65;;;2.25;;
83435;SDS011;73365;51.688;5.132;2024-02-15T07:22:31;5.43;;;2.22;;
83435;SDS011;73365;51.688;5.132;2024-02-15T07:25:00;5.53;;;2.60;;
83435;SDS011;73365;51.688;5.132;2024-02-15T07:27:25;5.70;;;2.28;;
83435;SDS011;73365;51.688;5.132;2024-02-15T07:29:52;7.93;;;2.70;;
83435;SDS011;73365;51.688;5.132;2024-02-15T07:32:17;4.60;;;2.20;;
83435;SDS011;73365;51.688;5.132;2024-02-15T07:34:44;5.30;;;2.25;;
83435;SDS011;73365;51.688;5.132;2024-02-15T07:37:11;4.60;;;1.92;;
83435;SDS011;73365;51.688;5.132;2024-02-15T07:39:41;4.55;;;1.98;;
83435;SDS011;73365;51.688;5.132;2024-02-15T07:42:07;3.83;;;2.10;;
83435;SDS011;73365;51.688;5.132;2024-02-15T07:44:35;6.68;;;2.30;;
83435;SDS011;73365;51.688;5.132;2024-02-15T07:47:01;6.97;;;2.65;;
83435;SDS011;73365;51.688;5.132;2024-02-15T07:49:28;5.43;;;1.98;;
83435;SDS011;73365;51.688;5.132;2024-02-15T07:51:53;6.65;;;2.22;;
83435;SDS011;73365;51.688;5.132;2024-02-15T07:54:20;3.88;;;2.22;;
83435;SDS011;73365;51.688;5.132;2024-02-15T07:56:47;6.60;;;2.47;;
83435;SDS011;73365;51.688;5.132;2024-02-15T07:59:14;4.68;;;2.35;;
83435;SDS011;73365;51.688;5.132;2024-02-15T08:01:44;4.00;;;2.08;;
83435;SDS011;73365;51.688;5.132;2024-02-15T08:04:15;5.40;;;2.42;;
83435;SDS011;73365;51.688;5.132;2024-02-15T08:06:43;6.38;;;2.67;;
83435;SDS011;73365;51.688;5.132;2024-02-15T08:09:09;5.75;;;2.17;;
83435;SDS011;73365;51.688;5.132;2024-02-15T08:11:41;4.35;;;2.08;;
83435;SDS011;73365;51.688;5.132;2024-02-15T08:14:09;5.70;;;2.10;;
83435;SDS011;73365;51.688;5.132;2024-02-15T08:16:37;4.25;;;1.92;;
83435;SDS011;73365;51.688;5.132;2024-02-15T08:19:05;5.40;;;2.17;;
83435;SDS011;73365;51.688;5.132;2024-02-15T08:21:32;7.90;;;2.13;;
83435;SDS011;73365;51.688;5.132;2024-02-15T08:24:00;4.18;;;2.08;;
83435;SDS011;73365;51.688;5.132;2024-02-15T08:26:30;6.78;;;2.60;;
83435;SDS011;73365;51.688;5.132;2024-02-15T08:29:01;4.70;;;2.33;;
83435;SDS011;73365;51.688;5.132;2024-02-15T08:31:33;6.43;;;2.13;;
83435;SDS011;73365;51.688;5.132;2024-02-15T08:33:59;4.28;;;1.77;;
83435;SDS011;73365;51.688;5.132;2024-02-15T08:36:26;4.50;;;2.17;;
83435;SDS011;73365;51.688;5.132;2024-02-15T08:38:52;4.60;;;2.17;;
83435;SDS011;73365;51.688;5.132;2024-02-15T08:41:17;4.80;;;2.30;;
83435;SDS011;73365;51.688;5.132;2024-02-15T08:43:43;5.63;;;2.13;;
83435;SDS011;73365;51.688;5.132;2024-02-15T08:46:10;3.88;;;1.98;;
83435;SDS011;73365;51.688;5.132;2024-02-15T08:48:40;6.95;;;2.08;;
83435;SDS011;73365;51.688;5.132;2024-02-15T08:51:06;7.15;;;2.45;;
83435;SDS011;73365;51.688;5.132;2024-02-15T08:53:34;5.55;;;2.50;;
83435;SDS011;73365;51.688;5.132;2024-02-15T08:56:02;5.13;;;1.83;;
83435;SDS011;73365;51.688;5.132;2024-02-15T08:58:28;5.03;;;2.22;;
83435;SDS011;73365;51.688;5.132;2024-02-15T09:00:56;5.35;;;2.30;;
83435;SDS011;73365;51.688;5.132;2024-02-15T09:03:23;6.03;;;2.30;;
83435;SDS011;73365;51.688;5.132;2024-02-15T09:05:51;6.30;;;1.98;;
83435;SDS011;73365;51.688;5.132;2024-02-15T09:08:17;6.00;;;2.58;;
83435;SDS011;73365;51.688;5.132;2024-02-15T09:10:48;5.50;;;2.00;;
83435;SDS011;73365;51.688;5.132;2024-02-15T09:13:14;5.70;;;2.08;;
83435;SDS011;73365;51.688;5.132;2024-02-15T09:15:40;4.78;;;1.98;;
83435;SDS011;73365;51.688;5.132;2024-02-15T09:18:06;6.32;;;2.03;;
83435;SDS011;73365;51.688;5.132;2024-02-15T09:20:37;6.78;;;2.38;;
83435;SDS011;73365;51.688;5.132;2024-02-15T09:23:09;5.75;;;2.05;;
83435;SDS011;73365;51.688;5.132;2024-02-15T09:25:40;6.03;;;2.05;;
83435;SDS011;73365;51.688;5.132;2024-02-15T09:28:09;7.15;;;2.00;;
83435;SDS011;73365;51.688;5.132;2024-02-15T09:30:35;4.47;;;2.15;;
83435;SDS011;73365;51.688;5.132;2024-02-15T09:33:01;5.57;;;2.10;;
83435;SDS011;73365;51.688;5.132;2024-02-15T09:35:32;5.07;;;1.92;;
83435;SDS011;73365;51.688;5.132;2024-02-15T09:37:58;6.00;;;2.30;;
83435;SDS011;73365;51.688;5.132;2024-02-15T09:40:30;5.07;;;2.20;;
83435;SDS011;73365;51.688;5.132;2024-02-15T09:42:58;6.07;;;1.90;;
83435;SDS011;73365;51.688;5.132;2024-02-15T09:45:25;4.70;;;2.20;;
83435;SDS011;73365;51.688;5.132;2024-02-15T09:47:52;10.27;;;2.53;;
83435;SDS011;73365;51.688;5.132;2024-02-15T09:50:18;4.05;;;1.92;;
83435;SDS011;73365;51.688;5.132;2024-02-15T09:52:44;5.78;;;1.95;;
83435;SDS011;73365;51.688;5.132;2024-02-15T09:55:17;4.60;;;1.88;;
83435;SDS011;73365;51.688;5.132;2024-02-15T09:57:43;5.95;;;2.15;;
83435;SDS011;73365;51.688;5.132;2024-02-15T10:00:11;4.60;;;2.08;;
83435;SDS011;73365;51.688;5.132;2024-02-15T10:02:42;4.05;;;2.10;;
83435;SDS011;73365;51.688;5.132;2024-02-15T10:05:11;6.57;;;2.50;;
83435;SDS011;73365;51.688;5.132;2024-02-15T10:07:40;5.05;;;1.90;;
83435;SDS011;73365;51.688;5.132;2024-02-15T10:10:14;5.97;;;2.30;;
83435;SDS011;73365;51.688;5.132;2024-02-15T10:12:41;4.95;;;2.08;;
83435;SDS011;73365;51.688;5.132;2024-02-15T10:15:10;8.07;;;1.90;;
83435;SDS011;73365;51.688;5.132;2024-02-15T10:17:39;5.90;;;2.33;;
83435;SDS011;73365;51.688;5.132;2024-02-15T10:20:06;6.38;;;2.22;;
83435;SDS011;73365;51.688;5.132;2024-02-15T10:22:35;4.63;;;1.92;;
83435;SDS011;73365;51.688;5.132;2024-02-15T10:25:12;5.90;;;1.98;;
83435;SDS011;73365;51.688;5.132;2024-02-15T10:27:41;5.80;;;2.85;;
83435;SDS011;73365;51.688;5.132;2024-02-15T10:30:17;4.47;;;2.05;;
83435;SDS011;73365;51.688;5.132;2024-02-15T10:32:45;4.60;;;2.20;;
83435;SDS011;73365;51.688;5.132;2024-02-15T10:35:22;5.88;;;2.00;;
83435;SDS011;73365;51.688;5.132;2024-02-15T10:37:48;7.15;;;2.90;;
83435;SDS011;73365;51.688;5.132;2024-02-15T10:40:18;5.03;;;1.92;;
83435;SDS011;73365;51.688;5.132;2024-02-15T10:42:44;5.30;;;1.90;;
83435;SDS011;73365;51.688;5.132;2024-02-15T10:45:11;4.88;;;1.73;;
83435;SDS011;73365;51.688;5.132;2024-02-15T10:47:37;5.18;;;2.03;;
83435;SDS011;73365;51.688;5.132;2024-02-15T10:50:05;4.38;;;1.90;;
83435;SDS011;73365;51.688;5.132;2024-02-15T10:52:31;6.75;;;2.65;;
83435;SDS011;73365;51.688;5.132;2024-02-15T10:55:04;7.38;;;1.90;;
83435;SDS011;73365;51.688;5.132;2024-02-15T10:57:38;6.03;;;2.08;;
83435;SDS011;73365;51.688;5.132;2024-02-15T11:00:09;5.45;;;1.92;;
83435;SDS011;73365;51.688;5.132;2024-02-15T11:02:59;6.30;;;2.63;;
83435;SDS011;73365;51.688;5.132;2024-02-15T11:05:33;9.55;;;2.25;;
83435;SDS011;73365;51.688;5.132;2024-02-15T11:08:04;6.13;;;2.30;;
83435;SDS011;73365;51.688;5.132;2024-02-15T11:10:31;6.55;;;2.42;;
83435;SDS011;73365;51.688;5.132;2024-02-15T11:12:58;4.53;;;2.03;;
83435;SDS011;73365;51.688;5.132;2024-02-15T11:21:17;4.95;;;2.17;;
83435;SDS011;73365;51.688;5.132;2024-02-15T11:23:44;5.72;;;1.88;;
83435;SDS011;73365;51.688;5.132;2024-02-15T11:26:42;7.32;;;2.17;;
83435;SDS011;73365;51.688;5.132;2024-02-15T11:32:35;4.60;;;2.17;;
83435;SDS011;73365;51.688;5.132;2024-02-15T11:37:52;5.07;;;2.00;;
83435;SDS011;73365;51.688;5.132;2024-02-15T11:40:23;6.43;;;2.42;;
83435;SDS011;73365;51.688;5.132;2024-02-15T11:42:57;4.53;;;2.28;;
83435;SDS011;73365;51.688;5.132;2024-02-15T11:45:42;6.55;;;1.98;;
83435;SDS011;73365;51.688;5.132;2024-02-15T11:48:11;5.28;;;2.15;;
83435;SDS011;73365;51.688;5.132;2024-02-15T11:50:37;6.80;;;2.15;;
83435;SDS011;73365;51.688;5.132;2024-02-15T11:53:07;4.90;;;1.75;;
83435;SDS011;73365;51.688;5.132;2024-02-15T11:55:34;7.20;;;1.83;;
83435;SDS011;73365;51.688;5.132;2024-02-15T11:58:04;5.22;;;2.15;;
83435;SDS011;73365;51.688;5.132;2024-02-15T12:00:42;5.75;;;1.90;;
83435;SDS011;73365;51.688;5.132;2024-02-15T12:03:26;6.82;;;2.15;;
83435;SDS011;73365;51.688;5.132;2024-02-15T12:06:10;4.28;;;2.00;;
83435;SDS011;73365;51.688;5.132;2024-02-15T12:08:54;8.32;;;2.70;;
83435;SDS011;73365;51.688;5.132;2024-02-15T12:11:39;3.03;;;1.42;;
83435;SDS011;73365;51.688;5.132;2024-02-15T12:14:23;4.22;;;1.58;;
83435;SDS011;73365;51.688;5.132;2024-02-15T12:17:08;5.30;;;1.90;;
83435;SDS011;73365;51.688;5.132;2024-02-15T12:19:54;6.28;;;1.55;;
83435;SDS011;73365;51.688;5.132;2024-02-15T12:22:35;5.20;;;1.65;;
83435;SDS011;73365;51.688;5.132;2024-02-15T12:25:15;8.98;;;1.80;;
83435;SDS011;73365;51.688;5.132;2024-02-15T12:27:41;5.03;;;1.42;;
83435;SDS011;73365;51.688;5.132;2024-02-15T12:30:17;4.63;;;1.42;;
83435;SDS011;73365;51.688;5.132;2024-02-15T12:32:48;5.75;;;1.95;;
83435;SDS011;73365;51.688;5.132;2024-02-15T12:35:21;4.75;;;1.63;;
83435;SDS011;73365;51.688;5.132;2024-02-15T12:40:29;4.10;;;1.38;;
83435;SDS011;73365;51.688;5.132;2024-02-15T12:42:55;4.13;;;1.77;;
83435;SDS011;73365;51.688;5.132;2024-02-15T12:45:21;5.28;;;1.60;;
83435;SDS011;73365;51.688;5.132;2024-02-15T12:47:50;6.13;;;1.58;;
83435;SDS011;73365;51.688;5.132;2024-02-15T12:50:19;4.40;;;1.90;;
83435;SDS011;73365;51.688;5.132;2024-02-15T12:52:49;4.85;;;1.40;;
83435;SDS011;73365;51.688;5.132;2024-02-15T12:55:37;6.30;;;2.22;;
83435;SDS011;73365;51.688;5.132;2024-02-15T12:58:05;3.55;;;1.50;;
83435;SDS011;73365;51.688;5.132;2024-02-15T13:00:34;4.72;;;1.85;;
83435;SDS011;73365;51.688;5.132;2024-02-15T13:03:06;6.97;;;2.00;;
83435;SDS011;73365;51.688;5.132;2024-02-15T13:05:37;5.05;;;2.13;;
83435;SDS011;73365;51.688;5.132;2024-02-15T13:08:03;5.15;;;1.42;;
83435;SDS011;73365;51.688;5.132;2024-02-15T13:10:31;6.40;;;1.60;;
83435;SDS011;73365;51.688;5.132;2024-02-15T13:12:57;5.43;;;1.45;;
83435;SDS011;73365;51.688;5.132;2024-02-15T13:15:23;5.03;;;1.83;;
83435;SDS011;73365;51.688;5.132;2024-02-15T13:17:52;5.32;;;1.50;;
83435;SDS011;73365;51.688;5.132;2024-02-15T13:20:25;5.20;;;1.42;;
83435;SDS011;73365;51.688;5.132;2024-02-15T13:22:58;6.90;;;1.70;;
83435;SDS011;73365;51.688;5.132;2024-02-15T13:25:32;7.65;;;2.00;;
83435;SDS011;73365;51.688;5.132;2024-02-15T13:27:58;5.25;;;1.38;;
83435;SDS011;73365;51.688;5.132;2024-02-15T13:30:24;5.30;;;1.27;;
83435;SDS011;73365;51.688;5.132;2024-02-15T13:32:52;3.75;;;1.15;;
83435;SDS011;73365;51.688;5.132;2024-02-15T13:35:19;4.38;;;1.60;;
83435;SDS011;73365;51.688;5.132;2024-02-15T13:37:51;8.77;;;2.00;;
83435;SDS011;73365;51.688;5.132;2024-02-15T13:40:24;4.28;;;1.10;;
83435;SDS011;73365;51.688;5.132;2024-02-15T13:42:52;6.10;;;1.60;;
83435;SDS011;73365;51.688;5.132;2024-02-15T13:45:21;4.03;;;1.13;;
83435;SDS011;73365;51.688;5.132;2024-02-15T13:47:56;5.93;;;1.40;;
83435;SDS011;73365;51.688;5.132;2024-02-15T13:50:23;3.42;;;0.95;;
83435;SDS011;73365;51.688;5.132;2024-02-15T13:52:49;4.82;;;1.30;;
83435;SDS011;73365;51.688;5.132;2024-02-15T13:55:16;5.35;;;1.50;;
83435;SDS011;73365;51.688;5.132;2024-02-15T13:57:45;3.85;;;1.40;;
83435;SDS011;73365;51.688;5.132;2024-02-15T14:00:12;3.13;;;1.33;;
83435;SDS011;73365;51.688;5.132;2024-02-15T14:02:40;4.88;;;1.42;;
83435;SDS011;73365;51.688;5.132;2024-02-15T14:05:07;3.13;;;1.23;;
83435;SDS011;73365;51.688;5.132;2024-02-15T14:07:36;3.63;;;1.25;;
83435;SDS011;73365;51.688;5.132;2024-02-15T14:10:26;3.10;;;1.50;;
83435;SDS011;73365;51.688;5.132;2024-02-15T14:12:53;3.13;;;1.48;;
83435;SDS011;73365;51.688;5.132;2024-02-15T14:15:39;4.80;;;1.25;;
83435;SDS011;73365;51.688;5.132;2024-02-15T14:18:05;5.47;;;1.20;;
83435;SDS011;73365;51.688;5.132;2024-02-15T14:20:31;3.80;;;1.38;;
83435;SDS011;73365;51.688;5.132;2024-02-15T14:22:57;4.55;;;1.60;;
83435;SDS011;73365;51.688;5.132;2024-02-15T14:25:30;4.65;;;1.27;;
83435;SDS011;73365;51.688;5.132;2024-02-15T14:28:01;3.83;;;1.40;;
83435;SDS011;73365;51.688;5.132;2024-02-15T14:30:31;5.15;;;1.20;;
83435;SDS011;73365;51.688;5.132;2024-02-15T14:33:16;4.35;;;1.65;;
83435;SDS011;73365;51.688;5.132;2024-02-15T14:35:44;103.38;;;42.97;;
83435;SDS011;73365;51.688;5.132;2024-02-15T14:38:10;106.18;;;44.42;;
83435;SDS011;73365;51.688;5.132;2024-02-15T14:40:41;39.50;;;17.92;;
83435;SDS011;73365;51.688;5.132;2024-02-15T14:43:21;23.35;;;11.45;;
83435;SDS011;73365;51.688;5.132;2024-02-15T14:45:48;61.15;;;26.23;;
83435;SDS011;73365;51.688;5.132;2024-02-15T14:48:16;32.47;;;18.30;;
83435;SDS011;73365;51.688;5.132;2024-02-15T14:50:43;16.35;;;8.73;;
83435;SDS011;73365;51.688;5.132;2024-02-15T14:53:11;37.17;;;16.50;;
83435;SDS011;73365;51.688;5.132;2024-02-15T14:55:38;23.20;;;11.38;;
83435;SDS011;73365;51.688;5.132;2024-02-15T14:58:11;11.80;;;4.82;;
83435;SDS011;73365;51.688;5.132;2024-02-15T15:00:38;12.45;;;5.75;;
83435;SDS011;73365;51.688;5.132;2024-02-15T15:03:06;9.18;;;4.45;;
83435;SDS011;73365;51.688;5.132;2024-02-15T15:05:32;11.52;;;4.55;;
83435;SDS011;73365;51.688;5.132;2024-02-15T15:08:16;7.78;;;3.38;;
83435;SDS011;73365;51.688;5.132;2024-02-15T15:11:00;14.07;;;5.65;;
83435;SDS011;73365;51.688;5.132;2024-02-15T15:13:44;8.68;;;3.40;;
83435;SDS011;73365;51.688;5.132;2024-02-15T15:16:11;8.77;;;3.42;;
83435;SDS011;73365;51.688;5.132;2024-02-15T15:18:39;6.88;;;2.90;;
83435;SDS011;73365;51.688;5.132;2024-02-15T15:21:05;8.13;;;2.80;;
83435;SDS011;73365;51.688;5.132;2024-02-15T15:23:34;7.57;;;2.35;;
83435;SDS011;73365;51.688;5.132;2024-02-15T15:26:00;8.43;;;2.53;;
83435;SDS011;73365;51.688;5.132;2024-02-15T15:28:27;4.50;;;1.30;;
83435;SDS011;73365;51.688;5.132;2024-02-15T15:30:53;6.45;;;2.58;;
83435;SDS011;73365;51.688;5.132;2024-02-15T15:33:19;10.00;;;3.80;;
83435;SDS011;73365;51.688;5.132;2024-02-15T15:35:45;5.82;;;2.53;;
83435;SDS011;73365;51.688;5.132;2024-02-15T15:38:11;6.75;;;2.65;;
83435;SDS011;73365;51.688;5.132;2024-02-15T15:40:36;8.45;;;3.03;;
83435;SDS011;73365;51.688;5.132;2024-02-15T15:43:02;8.20;;;2.88;;
83435;SDS011;73365;51.688;5.132;2024-02-15T15:45:28;8.15;;;3.05;;
83435;SDS011;73365;51.688;5.132;2024-02-15T15:47:54;6.63;;;2.45;;
83435;SDS011;73365;51.688;5.132;2024-02-15T15:50:22;7.75;;;2.70;;